• Join FlightAware (Why Join?)
  • Login
  • US Flag 
09:31PM EDT


 

Airport Tracker/Info


-or-


 

Live Flight TrackerFlight Track Log ✈ EJA831 ✈ 13-Jun-2013 ✈ KUES - KMDW

Flight Track Log - Related Links

Times and Time Zones

All times are in EDT time to prevent confusion due to time zone crossing. See the EJA831 flight status page for this flight to view local times or setup timezone preferences in your user account.

Time Position Orientation Groundspeed Altitude Reporting Facility
EDT Latitude Longitude Course Direction KTS MPH feet Rate Location/Type
09:22AM 43.0500 -88.2667 212° Southwest 184 212 1,800  Level KMKE
09:23AM 42.9981 -88.3117 212° Southwest 243 280 4,000 900 Climbing Chicago Center
09:24AM 42.9314 -88.2819 162° South 250 288 4,000  Level Chicago Center
09:25AM 42.8581 -88.2492 162° South 269 310 4,000  Level Chicago Center
09:26AM 42.7828 -88.2139 161° South 282 325 4,000  Level Chicago Center
09:27AM 42.7308 -88.1397 134° Southeast 277 319 4,000  Level Chicago Center
09:28AM 42.6833 -88.0417 123° Southeast 269 310 4,000  Level Chicago Center
09:29AM 42.6431 -87.9569 123° Southeast 268 308 4,000  Level Chicago Center
09:30AM 42.6039 -87.8744 123° Southeast 262 302 4,000 -60 Level Chicago Center
09:31AM 42.5575 -87.8017 131° Southeast 265 305 3,900 -60 Descending Chicago Center
09:32AM 42.4853 -87.7692 162° South 273 314 3,900  Level Chicago Center
09:33AM 42.4014 -87.7289 160° South 273 314 3,900  Level Chicago Center
09:34AM 42.3306 -87.6936 160° South 272 313 4,000  Climbing Chicago Center
09:35AM 42.2558 -87.6578 160° South 278 320 4,000  Level Chicago Center
09:36AM 42.1878 -87.6142 155° Southeast 273 314 4,000  Level Chicago Center
09:37AM 42.1214 -87.5653 151° Southeast 273 314 4,000  Level Chicago Center
09:38AM 42.0461 -87.5536 173° South 281 323 4,000  Level Chicago Center
09:39AM 41.9700 -87.5494 178° South 277 319 4,000  Level Chicago Center
09:40AM 41.8767 -87.5472 179° South 278 320 4,000  Level Chicago Center
09:41AM 41.8011 -87.5658 190° South 283 326 4,000  Level Chicago Center
09:43AM 41.7372 -87.6219 213° Southwest 278 320 4,000  Level Chicago Center
09:44AM 41.6919 -87.7033 233° Southwest 277 319 4,000 -600 Level Chicago Center
09:45AM 41.6503 -87.7764 233° Southwest 264 304 2,800 -720 Descending Chicago Center
09:46AM 41.6711 -87.8397 294° West 218 251 2,500 -180 Descending Chicago Center
09:47AM 41.7097 -87.8486 350° North 187 215 2,500 -420 Level Chicago Center
09:48AM 41.7397 -87.8131 41° Northeast 159 183 1,700 -720 Descending Chicago Center
09:49AM 41.7644 -87.7844 41° Northeast 136 157 1,100 -420 Descending Chicago Center
09:50AM 41.7894 -87.7522 44° Northeast 127 146 900 -240 Descending Chicago Center